createdAt,value
2019-02-17T00:02:09.623Z,0.78
2019-02-17T00:04:38.760Z,0.83
2019-02-17T00:07:07.870Z,0.81
2019-02-17T00:09:36.997Z,0.76
2019-02-17T00:12:06.270Z,0.81
2019-02-17T00:14:35.407Z,0.84
2019-02-17T00:17:04.579Z,0.71
2019-02-17T00:19:33.711Z,0.42
2019-02-17T00:22:02.927Z,0.42
2019-02-17T00:24:32.148Z,0.42
2019-02-17T00:27:01.250Z,0.47
2019-02-17T00:29:30.389Z,0.71
2019-02-17T00:31:59.756Z,0.54
2019-02-17T00:34:29.308Z,0.53
2019-02-17T00:36:58.757Z,0.38
2019-02-17T00:39:27.907Z,0.27
2019-02-17T00:41:57.035Z,0.41
2019-02-17T00:44:26.193Z,0.24
2019-02-17T00:46:55.648Z,0.24
2019-02-17T00:49:24.829Z,0.42
2019-02-17T00:51:53.944Z,0.19
2019-02-17T00:54:23.087Z,0.17
2019-02-17T00:56:52.204Z,0.17
2019-02-17T00:59:21.355Z,0.15
2019-02-17T01:01:50.513Z,0.23
2019-02-17T01:04:19.672Z,0.33
2019-02-17T01:06:48.834Z,0.15
2019-02-17T01:09:18.276Z,0.15
2019-02-17T01:11:47.507Z,0.00
2019-02-17T01:14:16.767Z,0.12
2019-02-17T01:16:45.854Z,0.21
2019-02-17T01:19:15.541Z,0.15
2019-02-17T01:21:44.664Z,0.01
2019-02-17T01:24:13.782Z,-0.03
2019-02-17T01:26:42.955Z,-0.02
2019-02-17T01:29:20.119Z,-0.03
2019-02-17T01:31:42.999Z,0.12
2019-02-17T01:34:12.421Z,0.06
2019-02-17T01:36:41.568Z,0.19
2019-02-17T01:39:10.709Z,0.07
2019-02-17T01:41:39.812Z,0.03
2019-02-17T01:44:08.934Z,0.03
2019-02-17T01:46:38.619Z,-0.06
2019-02-17T01:49:07.832Z,-0.04
2019-02-17T01:51:36.946Z,-0.22
2019-02-17T01:54:06.055Z,-0.16
2019-02-17T01:56:35.231Z,-0.13
2019-02-17T01:59:04.451Z,0.00
2019-02-17T02:01:33.599Z,-0.01
2019-02-17T02:04:02.697Z,0.02
2019-02-17T02:06:31.845Z,-0.03
2019-02-17T02:09:00.972Z,-0.10
2019-02-17T02:11:30.133Z,0.08
2019-02-17T02:13:59.309Z,-0.04
2019-02-17T02:16:28.454Z,0.05
2019-02-17T02:18:57.589Z,0.08
2019-02-17T02:21:26.741Z,0.05
2019-02-17T02:23:55.887Z,0.03
2019-02-17T02:26:25.193Z,-0.14
2019-02-17T02:28:54.336Z,0.02
2019-02-17T02:31:23.467Z,0.03
2019-02-17T02:33:52.616Z,-0.03
2019-02-17T02:36:21.763Z,-0.03
2019-02-17T02:38:50.902Z,0.11
2019-02-17T02:41:20.028Z,0.05
2019-02-17T02:43:49.167Z,-0.04
2019-02-17T02:46:18.299Z,0.04
2019-02-17T02:48:47.508Z,0.04
2019-02-17T02:51:16.628Z,-0.22
2019-02-17T02:53:46.226Z,-0.16
2019-02-17T02:56:15.848Z,-0.32
2019-02-17T02:58:45.103Z,-0.17
2019-02-17T03:01:14.452Z,-0.27
2019-02-17T03:03:46.026Z,-0.29
2019-02-17T03:06:27.539Z,-0.22
2019-02-17T03:08:56.670Z,-0.35
2019-02-17T03:11:25.790Z,-0.45
2019-02-17T03:13:54.932Z,-0.37
2019-02-17T03:16:24.113Z,-0.29
2019-02-17T03:18:53.537Z,-0.20
2019-02-17T03:21:22.697Z,-0.14
2019-02-17T03:23:51.816Z,-0.21
2019-02-17T03:26:20.982Z,-0.31
2019-02-17T03:28:50.108Z,-0.34
2019-02-17T03:31:19.265Z,-0.46
2019-02-17T03:33:48.372Z,-0.48
2019-02-17T03:36:17.544Z,-0.33
2019-02-17T03:38:46.705Z,-0.28
2019-02-17T03:41:17.002Z,-0.35
2019-02-17T03:43:46.177Z,-0.42
2019-02-17T03:46:15.393Z,-0.29
2019-02-17T03:48:44.740Z,-0.39
2019-02-17T03:51:15.368Z,-0.45
2019-02-17T03:53:44.549Z,-0.45
2019-02-17T03:56:13.714Z,-0.58
2019-02-17T03:58:42.841Z,-0.63
2019-02-17T04:01:11.972Z,-0.64
2019-02-17T04:03:41.104Z,-0.59
2019-02-17T04:06:10.197Z,-0.58
2019-02-17T04:08:39.365Z,-0.61
2019-02-17T04:11:08.498Z,-0.53
2019-02-17T04:13:38.100Z,-0.72
2019-02-17T04:16:07.287Z,-0.63
2019-02-17T04:18:36.462Z,-0.83
2019-02-17T04:21:05.587Z,-0.76
2019-02-17T04:23:34.711Z,-1.00
2019-02-17T04:26:03.863Z,-0.83
2019-02-17T04:28:33.019Z,-0.81
2019-02-17T04:31:02.747Z,-0.76
2019-02-17T04:33:31.933Z,-0.60
2019-02-17T04:36:01.319Z,-0.67
2019-02-17T04:38:30.476Z,-0.75
2019-02-17T04:40:59.597Z,-0.93
2019-02-17T04:43:28.775Z,-1.00
2019-02-17T04:45:58.010Z,-0.90
2019-02-17T04:48:27.144Z,-0.80
2019-02-17T04:50:56.282Z,-0.91
2019-02-17T04:53:25.463Z,-0.75
2019-02-17T04:55:54.638Z,-0.65
2019-02-17T04:58:24.111Z,-0.69
2019-02-17T05:00:53.234Z,-0.84
2019-02-17T05:03:22.509Z,-0.96
2019-02-17T05:05:51.655Z,-1.18
2019-02-17T05:08:20.840Z,-1.04
2019-02-17T05:10:50.029Z,-1.02
2019-02-17T05:13:19.179Z,-0.94
2019-02-17T05:15:48.347Z,-0.89
2019-02-17T05:18:17.982Z,-1.01
2019-02-17T05:20:47.096Z,-1.11
2019-02-17T05:23:16.363Z,-1.16
2019-02-17T05:25:45.500Z,-1.13
2019-02-17T05:28:14.655Z,-1.13
2019-02-17T05:30:52.118Z,-1.11
2019-02-17T05:33:15.106Z,-1.07
2019-02-17T05:35:44.228Z,-1.12
2019-02-17T05:38:13.741Z,-0.93
2019-02-17T05:40:42.939Z,-0.96
2019-02-17T05:43:12.365Z,-1.14
2019-02-17T05:45:41.567Z,-1.34
2019-02-17T05:48:10.720Z,-1.15
2019-02-17T05:50:40.168Z,-1.08
2019-02-17T05:53:09.338Z,-1.22
2019-02-17T05:55:38.899Z,-1.16
2019-02-17T05:58:08.069Z,-1.23
2019-02-17T06:00:38.565Z,-1.14
2019-02-17T06:03:07.750Z,-1.23
2019-02-17T06:05:36.892Z,-1.24
2019-02-17T06:08:06.028Z,-1.32
2019-02-17T06:10:35.273Z,-1.39
2019-02-17T06:13:04.821Z,-1.35
2019-02-17T06:15:33.976Z,-1.47
2019-02-17T06:18:03.097Z,-1.30
2019-02-17T06:20:32.234Z,-1.33
2019-02-17T06:23:01.424Z,-1.41
2019-02-17T06:25:30.608Z,-1.60
2019-02-17T06:27:59.735Z,-1.45
2019-02-17T06:30:28.903Z,-1.32
2019-02-17T06:32:58.019Z,-1.26
2019-02-17T06:35:27.242Z,-1.22
2019-02-17T06:37:56.450Z,-1.38
2019-02-17T06:40:25.612Z,-1.24
2019-02-17T06:42:54.817Z,-1.23
2019-02-17T06:45:23.976Z,-1.33
2019-02-17T06:47:53.071Z,-1.28
2019-02-17T06:50:22.256Z,-1.24
2019-02-17T06:52:51.404Z,-1.15
2019-02-17T06:55:27.388Z,-1.26
2019-02-17T06:57:56.929Z,-1.13
2019-02-17T07:00:31.511Z,-1.16
2019-02-17T07:03:00.877Z,-1.21
2019-02-17T07:05:48.939Z,-1.29
2019-02-17T07:08:18.090Z,-1.16
2019-02-17T07:10:47.256Z,-1.08
2019-02-17T07:13:16.371Z,-1.00
2019-02-17T07:15:45.802Z,-0.99
2019-02-17T07:18:15.558Z,-0.93
2019-02-17T07:20:49.110Z,-0.82
2019-02-17T07:23:18.384Z,-0.87
2019-02-17T07:25:47.663Z,-0.82
2019-02-17T07:28:16.984Z,-0.79
2019-02-17T07:30:46.323Z,-0.78
2019-02-17T07:33:15.442Z,-0.66
2019-02-17T07:35:44.718Z,-0.53
2019-02-17T07:38:13.835Z,-0.57
2019-02-17T07:40:42.989Z,-0.54
2019-02-17T07:43:12.201Z,-0.51
2019-02-17T07:45:41.426Z,-0.51
2019-02-17T07:48:10.623Z,-0.40
2019-02-17T07:50:39.838Z,-0.25
2019-02-17T07:53:08.951Z,-0.11
2019-02-17T07:55:38.204Z,0.01
2019-02-17T07:58:07.295Z,0.20
2019-02-17T08:00:36.541Z,0.23
2019-02-17T08:03:05.655Z,0.37
2019-02-17T08:05:34.873Z,0.55
2019-02-17T08:08:04.167Z,0.58
2019-02-17T08:10:33.339Z,0.71
2019-02-17T08:13:02.605Z,0.82
2019-02-17T08:15:31.727Z,0.93
2019-02-17T08:18:00.871Z,1.07
2019-02-17T08:20:30.005Z,1.19
2019-02-17T08:22:59.140Z,1.30
2019-02-17T08:25:28.261Z,1.38
2019-02-17T08:27:57.513Z,1.56
2019-02-17T08:30:26.647Z,1.65
2019-02-17T08:32:56.205Z,1.71
2019-02-17T08:35:25.379Z,1.91
2019-02-17T08:37:54.590Z,2.03
2019-02-17T08:40:23.769Z,2.17
2019-02-17T08:42:52.929Z,2.32
2019-02-17T08:45:22.428Z,2.53
2019-02-17T08:47:51.604Z,2.67
2019-02-17T08:50:20.792Z,2.86
2019-02-17T08:52:50.036Z,3.01
2019-02-17T08:55:19.219Z,3.25
2019-02-17T08:57:48.439Z,3.50
2019-02-17T09:00:17.677Z,3.66
2019-02-17T09:02:52.867Z,3.75
2019-02-17T09:05:22.111Z,3.88
2019-02-17T09:07:51.374Z,4.10
2019-02-17T09:10:20.593Z,4.31
2019-02-17T09:12:49.941Z,4.42
2019-02-17T09:15:19.196Z,4.53
2019-02-17T09:17:48.502Z,4.66
2019-02-17T09:20:18.185Z,4.63
2019-02-17T09:22:47.440Z,4.61
2019-02-17T09:25:16.579Z,4.72
2019-02-17T09:27:45.807Z,4.84
2019-02-17T09:30:16.258Z,4.91
2019-02-17T09:32:45.468Z,5.05
2019-02-17T09:35:14.675Z,5.17
2019-02-17T09:37:43.906Z,5.34
2019-02-17T09:40:13.143Z,5.31
2019-02-17T09:42:42.339Z,5.46
2019-02-17T09:45:12.843Z,5.42
2019-02-17T09:47:42.054Z,5.49
2019-02-17T09:50:12.434Z,5.57
2019-02-17T09:52:41.633Z,5.69
2019-02-17T09:55:10.850Z,5.63
2019-02-17T09:57:40.251Z,5.80
2019-02-17T10:00:11.156Z,5.90
2019-02-17T10:02:40.460Z,6.06
2019-02-17T10:05:09.678Z,6.14
2019-02-17T10:07:39.162Z,6.21
2019-02-17T10:10:12.866Z,6.18
2019-02-17T10:12:42.133Z,6.35
2019-02-17T10:15:12.437Z,6.36
2019-02-17T10:17:41.960Z,6.44
2019-02-17T10:20:11.464Z,6.47
2019-02-17T10:22:40.700Z,6.61
2019-02-17T10:25:10.093Z,6.74
2019-02-17T10:27:39.384Z,6.76
2019-02-17T10:30:10.695Z,6.88
2019-02-17T10:32:39.946Z,7.05
2019-02-17T10:35:09.221Z,7.11
2019-02-17T10:37:38.450Z,7.31
2019-02-17T10:40:09.535Z,7.18
2019-02-17T10:42:38.771Z,7.12
2019-02-17T10:45:08.985Z,7.28
2019-02-17T10:47:38.283Z,7.33
2019-02-17T10:50:08.301Z,7.40
2019-02-17T10:52:37.787Z,7.52
2019-02-17T10:55:07.472Z,7.66
2019-02-17T10:57:36.713Z,7.69
2019-02-17T11:00:08.390Z,7.85
2019-02-17T11:02:46.841Z,7.80
2019-02-17T11:05:08.562Z,7.95
2019-02-17T11:07:37.739Z,7.99
2019-02-17T11:10:08.994Z,8.15
2019-02-17T11:12:38.294Z,8.15
2019-02-17T11:15:09.659Z,8.21
2019-02-17T11:17:38.910Z,8.19
2019-02-17T11:20:08.314Z,8.33
2019-02-17T11:22:37.583Z,8.46
2019-02-17T11:25:06.888Z,8.47
2019-02-17T11:27:36.088Z,8.67
2019-02-17T11:30:07.633Z,8.84
2019-02-17T11:32:36.761Z,8.84
2019-02-17T11:35:06.187Z,8.83
2019-02-17T11:37:35.583Z,8.84
2019-02-17T11:40:07.601Z,9.20
2019-02-17T11:42:47.279Z,9.20
2019-02-17T11:45:17.767Z,9.29
2019-02-17T11:47:47.227Z,9.46
2019-02-17T11:50:18.729Z,9.50
2019-02-17T11:52:48.048Z,9.69
2019-02-17T11:55:17.404Z,9.72
2019-02-17T11:57:46.539Z,9.74
2019-02-17T12:00:17.672Z,9.81
2019-02-17T12:02:47.439Z,9.90
2019-02-17T12:05:17.134Z,9.92
2019-02-17T12:07:46.357Z,9.97
2019-02-17T12:10:15.623Z,10.00
2019-02-17T12:12:45.143Z,10.14
2019-02-17T12:15:14.697Z,10.44
2019-02-17T12:17:47.376Z,10.53
2019-02-17T12:20:36.286Z,10.55
2019-02-17T12:23:09.507Z,10.56
2019-02-17T12:25:43.278Z,10.60
2019-02-17T12:28:31.363Z,10.63
2019-02-17T12:31:00.481Z,10.73
2019-02-17T12:33:29.615Z,10.77
2019-02-17T12:35:59.240Z,10.88
2019-02-17T12:38:28.463Z,10.86
2019-02-17T12:40:57.745Z,10.98
2019-02-17T12:43:26.871Z,10.96
2019-02-17T12:45:59.038Z,11.01
2019-02-17T12:48:28.211Z,11.01
2019-02-17T12:50:57.433Z,10.97
2019-02-17T12:53:26.656Z,10.93
2019-02-17T12:55:55.838Z,11.24
2019-02-17T12:58:29.977Z,11.21
2019-02-17T13:00:55.853Z,11.19
2019-02-17T13:03:28.424Z,11.22
2019-02-17T13:05:55.852Z,11.19
2019-02-17T13:08:25.099Z,11.27
2019-02-17T13:10:55.270Z,11.28
2019-02-17T13:13:24.536Z,11.38
2019-02-17T13:15:53.804Z,11.29
2019-02-17T13:18:23.216Z,11.42
2019-02-17T13:20:52.615Z,11.53
2019-02-17T13:23:21.794Z,11.51
2019-02-17T13:25:51.066Z,11.55
2019-02-17T13:28:20.479Z,11.42
2019-02-17T13:30:49.592Z,11.28
2019-02-17T13:33:18.716Z,11.34
2019-02-17T13:35:47.856Z,11.22
2019-02-17T13:38:16.981Z,11.28
2019-02-17T13:40:46.265Z,11.23
2019-02-17T13:43:15.352Z,11.34
2019-02-17T13:45:44.967Z,11.32
2019-02-17T13:48:14.135Z,11.48
2019-02-17T13:50:44.415Z,11.57
2019-02-17T13:53:13.774Z,11.64
2019-02-17T13:55:48.173Z,11.63
2019-02-17T13:58:17.406Z,11.63
2019-02-17T14:00:46.599Z,11.64
2019-02-17T14:03:15.733Z,11.69
2019-02-17T14:05:44.901Z,11.69
2019-02-17T14:08:14.030Z,11.83
2019-02-17T14:10:43.407Z,11.85
2019-02-17T14:13:12.582Z,11.86
2019-02-17T14:15:41.729Z,12.02
2019-02-17T14:18:10.859Z,11.92
2019-02-17T14:20:40.093Z,11.87
2019-02-17T14:23:09.222Z,12.03
2019-02-17T14:25:38.485Z,11.98
2019-02-17T14:28:07.909Z,12.07
2019-02-17T14:30:37.097Z,11.96
2019-02-17T14:33:06.330Z,11.91
2019-02-17T14:35:35.546Z,11.96
2019-02-17T14:38:04.727Z,12.01
2019-02-17T14:40:33.943Z,11.96
2019-02-17T14:43:03.144Z,11.93
2019-02-17T14:45:32.388Z,11.74
2019-02-17T14:48:01.536Z,11.68
2019-02-17T14:50:30.759Z,11.63
2019-02-17T14:52:59.908Z,11.60
2019-02-17T14:55:29.093Z,11.69
2019-02-17T14:58:05.010Z,11.60
2019-02-17T15:00:29.197Z,11.63
2019-02-17T15:02:58.405Z,11.60
2019-02-17T15:05:27.558Z,11.52
2019-02-17T15:07:56.790Z,11.40
2019-02-17T15:10:26.030Z,11.26
2019-02-17T15:12:55.363Z,11.39
2019-02-17T15:15:25.100Z,11.26
2019-02-17T15:17:54.465Z,11.42
2019-02-17T15:20:23.917Z,11.33
2019-02-17T15:22:53.115Z,11.41
2019-02-17T15:25:22.310Z,11.38
2019-02-17T15:27:51.554Z,11.32
2019-02-17T15:30:20.734Z,11.26
2019-02-17T15:32:49.925Z,11.32
2019-02-17T15:35:19.051Z,11.25
2019-02-17T15:37:48.419Z,11.28
2019-02-17T15:40:17.963Z,11.19
2019-02-17T15:42:47.242Z,11.08
2019-02-17T15:45:16.479Z,11.01
2019-02-17T15:47:45.969Z,10.91
2019-02-17T15:50:15.200Z,10.73
2019-02-17T15:52:44.440Z,10.67
2019-02-17T15:55:13.661Z,10.59
2019-02-17T15:57:43.132Z,10.58
2019-02-17T16:00:13.410Z,10.55
2019-02-17T16:02:42.632Z,10.50
2019-02-17T16:05:11.929Z,10.35
2019-02-17T16:07:41.180Z,10.34
2019-02-17T16:10:10.988Z,10.26
2019-02-17T16:12:40.235Z,10.19
2019-02-17T16:15:11.902Z,10.10
2019-02-17T16:17:41.266Z,9.86
2019-02-17T16:20:12.081Z,9.70
2019-02-17T16:22:41.278Z,9.50
2019-02-17T16:25:10.507Z,9.35
2019-02-17T16:27:39.708Z,9.18
2019-02-17T16:30:11.833Z,8.99
2019-02-17T16:32:41.039Z,8.79
2019-02-17T16:35:10.212Z,8.39
2019-02-17T16:37:39.429Z,8.39
2019-02-17T16:40:10.657Z,8.26
2019-02-17T16:42:40.078Z,8.22
2019-02-17T16:45:10.801Z,7.98
2019-02-17T16:47:40.575Z,7.92
2019-02-17T16:50:12.044Z,7.76
2019-02-17T16:52:41.363Z,7.62
2019-02-17T16:55:11.250Z,7.61
2019-02-17T16:57:40.535Z,7.50
2019-02-17T17:00:11.826Z,7.48
2019-02-17T17:02:41.104Z,7.39
2019-02-17T17:05:10.442Z,7.39
2019-02-17T17:07:39.639Z,7.37
2019-02-17T17:10:09.203Z,7.33
2019-02-17T17:12:38.413Z,7.22
2019-02-17T17:15:07.759Z,7.22
2019-02-17T17:17:37.006Z,6.93
2019-02-17T17:20:07.447Z,6.93
2019-02-17T17:22:36.627Z,6.73
2019-02-17T17:25:06.256Z,6.64
2019-02-17T17:27:35.473Z,6.59
2019-02-17T17:30:05.321Z,6.55
2019-02-17T17:32:34.574Z,6.42
2019-02-17T17:35:03.850Z,5.93
2019-02-17T17:37:33.138Z,5.74
2019-02-17T17:40:02.386Z,5.82
2019-02-17T17:42:31.628Z,5.86
2019-02-17T17:45:00.885Z,5.73
2019-02-17T17:47:31.268Z,5.56
2019-02-17T17:50:00.536Z,5.31
2019-02-17T17:52:30.276Z,5.39
2019-02-17T17:54:59.567Z,5.31
2019-02-17T17:57:28.984Z,5.26
2019-02-17T17:59:58.354Z,5.06
2019-02-17T18:02:27.593Z,5.01
2019-02-17T18:04:56.898Z,4.90
2019-02-17T18:07:26.327Z,4.95
2019-02-17T18:09:55.727Z,5.09
2019-02-17T18:12:25.156Z,5.22
2019-02-17T18:14:54.426Z,5.14
2019-02-17T18:17:23.700Z,5.10
2019-02-17T18:19:52.963Z,5.15
2019-02-17T18:22:22.218Z,4.99
2019-02-17T18:24:51.521Z,4.77
2019-02-17T18:27:20.725Z,4.83
2019-02-17T18:29:50.047Z,4.79
2019-02-17T18:32:19.270Z,4.65
2019-02-17T18:34:49.459Z,4.64
2019-02-17T18:37:39.415Z,4.64
2019-02-17T18:40:44.682Z,4.57
2019-02-17T18:43:17.599Z,4.50
2019-02-17T18:46:14.024Z,4.49
2019-02-17T18:48:52.356Z,4.25
2019-02-17T18:51:44.262Z,4.11
2019-02-17T18:54:50.547Z,4.14
2019-02-17T18:57:16.040Z,4.03
2019-02-17T18:59:45.291Z,4.06
2019-02-17T19:02:14.509Z,3.91
2019-02-17T19:04:43.764Z,3.83
2019-02-17T19:07:13.041Z,3.85
2019-02-17T19:09:42.303Z,3.77
2019-02-17T19:12:11.576Z,3.64
2019-02-17T19:14:40.863Z,3.65
2019-02-17T19:17:10.065Z,3.48
2019-02-17T19:19:39.802Z,3.58
2019-02-17T19:22:08.971Z,3.42
2019-02-17T19:24:38.112Z,3.26
2019-02-17T19:27:07.230Z,3.31
2019-02-17T19:29:36.457Z,3.28
2019-02-17T19:32:05.662Z,3.28
2019-02-17T19:34:34.919Z,3.19
2019-02-17T19:37:04.320Z,3.10
2019-02-17T19:39:33.454Z,2.95
2019-02-17T19:42:02.749Z,3.09
2019-02-17T19:44:31.906Z,2.97
2019-02-17T19:47:01.180Z,3.01
2019-02-17T19:49:30.529Z,2.75
2019-02-17T19:51:59.859Z,2.83
2019-02-17T19:54:29.105Z,2.84
2019-02-17T19:56:58.453Z,2.89
2019-02-17T19:59:27.761Z,2.80
2019-02-17T20:01:57.015Z,2.79
2019-02-17T20:04:43.491Z,2.66
2019-02-17T20:07:12.761Z,2.76
2019-02-17T20:09:42.138Z,2.78
2019-02-17T20:12:11.430Z,2.68
2019-02-17T20:14:40.758Z,2.54
2019-02-17T20:17:10.019Z,2.48
2019-02-17T20:19:39.588Z,2.45
2019-02-17T20:22:08.851Z,2.52
2019-02-17T20:24:38.184Z,2.35
2019-02-17T20:27:07.457Z,2.38
2019-02-17T20:29:36.751Z,2.27
2019-02-17T20:32:06.001Z,2.24
2019-02-17T20:34:35.339Z,2.29
2019-02-17T20:37:04.537Z,2.22
2019-02-17T20:39:33.759Z,2.31
2019-02-17T20:42:02.990Z,2.20
2019-02-17T20:44:32.195Z,2.16
2019-02-17T20:47:01.417Z,2.00
2019-02-17T20:49:30.672Z,2.17
2019-02-17T20:51:59.867Z,2.09
2019-02-17T20:54:28.963Z,1.98
2019-02-17T20:56:58.278Z,1.92
2019-02-17T20:59:27.391Z,1.86
2019-02-17T21:01:56.554Z,1.85
2019-02-17T21:04:25.676Z,1.65
2019-02-17T21:06:54.822Z,1.74
2019-02-17T21:09:23.915Z,1.87
2019-02-17T21:11:53.114Z,1.76
2019-02-17T21:14:22.249Z,1.73
2019-02-17T21:16:51.383Z,1.57
2019-02-17T21:19:20.658Z,1.66
2019-02-17T21:21:49.808Z,1.57
2019-02-17T21:24:18.919Z,1.57
2019-02-17T21:26:48.070Z,1.51
2019-02-17T21:29:17.248Z,1.59
2019-02-17T21:31:46.928Z,1.54
2019-02-17T21:34:16.112Z,1.61
2019-02-17T21:36:45.275Z,1.54
2019-02-17T21:39:14.380Z,1.36
2019-02-17T21:41:43.682Z,1.27
2019-02-17T21:44:12.831Z,1.25
2019-02-17T21:46:41.927Z,1.28
2019-02-17T21:49:11.067Z,1.31
2019-02-17T21:51:40.215Z,1.31
2019-02-17T21:54:09.356Z,1.24
2019-02-17T21:56:38.502Z,1.11
2019-02-17T21:59:07.726Z,1.01
2019-02-17T22:01:36.851Z,1.14
2019-02-17T22:04:06.003Z,1.10
2019-02-17T22:06:35.170Z,1.20
2019-02-17T22:09:05.036Z,1.22
2019-02-17T22:11:34.215Z,1.11
2019-02-17T22:14:03.477Z,1.17
2019-02-17T22:16:32.611Z,1.16
2019-02-17T22:19:01.899Z,1.20
2019-02-17T22:21:31.367Z,1.23
2019-02-17T22:24:00.512Z,1.08
2019-02-17T22:26:29.652Z,1.01
2019-02-17T22:28:59.008Z,1.00
2019-02-17T22:31:28.116Z,1.09
2019-02-17T22:33:57.294Z,1.03
2019-02-17T22:36:26.428Z,1.07
2019-02-17T22:38:58.842Z,1.06
2019-02-17T22:41:28.406Z,1.02
2019-02-17T22:43:57.599Z,1.02
2019-02-17T22:46:27.100Z,1.02
2019-02-17T22:48:56.270Z,0.80
2019-02-17T22:51:25.409Z,0.89
2019-02-17T22:53:54.523Z,0.95
2019-02-17T22:56:23.697Z,0.79
2019-02-17T22:58:52.849Z,0.75
2019-02-17T23:01:26.674Z,0.78
2019-02-17T23:03:55.825Z,0.86
2019-02-17T23:06:24.930Z,0.89
2019-02-17T23:08:54.122Z,0.78
2019-02-17T23:11:23.300Z,0.83
2019-02-17T23:13:52.421Z,0.72
2019-02-17T23:16:21.569Z,0.63
2019-02-17T23:18:50.680Z,0.40
2019-02-17T23:21:19.826Z,0.45
2019-02-17T23:23:49.098Z,0.55
2019-02-17T23:26:18.222Z,0.51
2019-02-17T23:28:47.388Z,0.56
2019-02-17T23:31:18.843Z,0.63
2019-02-17T23:33:48.060Z,0.41
2019-02-17T23:36:17.188Z,0.47
2019-02-17T23:38:46.331Z,0.39
2019-02-17T23:41:15.451Z,0.56
2019-02-17T23:43:44.630Z,0.30
2019-02-17T23:46:13.757Z,0.42
2019-02-17T23:48:43.066Z,0.40
2019-02-17T23:51:12.210Z,0.44
2019-02-17T23:53:41.355Z,0.19
2019-02-17T23:56:10.531Z,0.30
2019-02-17T23:58:40.112Z,0.38
